sensor_id;sensor_type;location;lat;lon;timestamp;pressure;altitude;pressure_sealevel;temperature;humidity
21234;BME280;10774;42.178;26.578;2022-11-12T00:00:36;101364.66;;;9.26;100.00
21234;BME280;10774;42.178;26.578;2022-11-12T00:03:01;101343.22;;;9.26;100.00
21234;BME280;10774;42.178;26.578;2022-11-12T00:05:27;101369.38;;;9.44;100.00
21234;BME280;10774;42.178;26.578;2022-11-12T00:07:52;101373.91;;;9.42;100.00
21234;BME280;10774;42.178;26.578;2022-11-12T00:10:18;101366.00;;;9.39;100.00
21234;BME280;10774;42.178;26.578;2022-11-12T00:12:43;101351.53;;;9.43;100.00
21234;BME280;10774;42.178;26.578;2022-11-12T00:15:10;101369.84;;;9.55;100.00
21234;BME280;10774;42.178;26.578;2022-11-12T00:17:35;101369.03;;;9.53;100.00
21234;BME280;10774;42.178;26.578;2022-11-12T00:20:01;101347.56;;;9.30;100.00
21234;BME280;10774;42.178;26.578;2022-11-12T00:22:27;101363.88;;;9.47;100.00
21234;BME280;10774;42.178;26.578;2022-11-12T00:24:52;101351.53;;;9.43;100.00
21234;BME280;10774;42.178;26.578;2022-11-12T00:27:18;101347.34;;;9.36;100.00
21234;BME280;10774;42.178;26.578;2022-11-12T00:29:43;101360.63;;;9.39;100.00
21234;BME280;10774;42.178;26.578;2022-11-12T00:32:09;101350.94;;;9.35;100.00
21234;BME280;10774;42.178;26.578;2022-11-12T00:34:34;101356.38;;;9.33;100.00
21234;BME280;10774;42.178;26.578;2022-11-12T00:37:00;101360.31;;;9.23;100.00
21234;BME280;10774;42.178;26.578;2022-11-12T00:39:27;101360.19;;;9.26;100.00
21234;BME280;10774;42.178;26.578;2022-11-12T00:41:52;101358.34;;;9.28;100.00
21234;BME280;10774;42.178;26.578;2022-11-12T00:44:18;101351.97;;;9.31;100.00
21234;BME280;10774;42.178;26.578;2022-11-12T00:46:43;101337.97;;;9.23;100.00
21234;BME280;10774;42.178;26.578;2022-11-12T00:49:09;101345.84;;;9.27;100.00
21234;BME280;10774;42.178;26.578;2022-11-12T00:51:34;101353.84;;;9.29;100.00
21234;BME280;10774;42.178;26.578;2022-11-12T00:54:00;101344.97;;;9.27;100.00
21234;BME280;10774;42.178;26.578;2022-11-12T00:56:26;101345.81;;;9.29;100.00
21234;BME280;10774;42.178;26.578;2022-11-12T00:58:51;101342.38;;;9.25;100.00
21234;BME280;10774;42.178;26.578;2022-11-12T01:01:24;101342.25;;;9.28;100.00
21234;BME280;10774;42.178;26.578;2022-11-12T01:03:49;101328.81;;;9.30;100.00
21234;BME280;10774;42.178;26.578;2022-11-12T01:06:21;101332.34;;;9.30;100.00
21234;BME280;10774;42.178;26.578;2022-11-12T01:08:48;101310.53;;;9.16;100.00
21234;BME280;10774;42.178;26.578;2022-11-12T01:11:21;101310.38;;;9.21;100.00
21234;BME280;10774;42.178;26.578;2022-11-12T01:13:55;101314.75;;;9.23;100.00
21234;BME280;10774;42.178;26.578;2022-11-12T01:16:23;101314.47;;;9.31;100.00
21234;BME280;10774;42.178;26.578;2022-11-12T01:18:57;101307.47;;;9.27;100.00
21234;BME280;10774;42.178;26.578;2022-11-12T01:21:24;101312.03;;;9.25;100.00
21234;BME280;10774;42.178;26.578;2022-11-12T01:23:50;101318.72;;;9.36;100.00
21234;BME280;10774;42.178;26.578;2022-11-12T01:26:18;101311.88;;;9.28;100.00
21234;BME280;10774;42.178;26.578;2022-11-12T01:28:44;101306.53;;;9.28;100.00
21234;BME280;10774;42.178;26.578;2022-11-12T01:33:35;101323.53;;;9.27;100.00
21234;BME280;10774;42.178;26.578;2022-11-12T01:36:00;101311.25;;;9.21;100.00
21234;BME280;10774;42.178;26.578;2022-11-12T01:38:26;101316.34;;;9.29;100.00
21234;BME280;10774;42.178;26.578;2022-11-12T01:40:51;101315.41;;;9.30;100.00
21234;BME280;10774;42.178;26.578;2022-11-12T01:43:17;101302.47;;;9.18;100.00
21234;BME280;10774;42.178;26.578;2022-11-12T01:45:45;101309.44;;;9.22;100.00
21234;BME280;10774;42.178;26.578;2022-11-12T01:48:38;101302.47;;;9.18;100.00
21234;BME280;10774;42.178;26.578;2022-11-12T01:51:06;101300.69;;;9.16;100.00
21234;BME280;10774;42.178;26.578;2022-11-12T01:53:39;101293.50;;;9.19;100.00
21234;BME280;10774;42.178;26.578;2022-11-12T01:56:06;101309.56;;;9.19;100.00
21234;BME280;10774;42.178;26.578;2022-11-12T01:58:32;101293.81;;;9.09;100.00
21234;BME280;10774;42.178;26.578;2022-11-12T02:01:00;101297.09;;;9.18;100.00
21234;BME280;10774;42.178;26.578;2022-11-12T02:03:26;101311.19;;;9.23;100.00
21234;BME280;10774;42.178;26.578;2022-11-12T02:05:59;101312.28;;;9.17;100.00
21234;BME280;10774;42.178;26.578;2022-11-12T02:08:28;101305.34;;;9.11;100.00
21234;BME280;10774;42.178;26.578;2022-11-12T02:10:54;101322.84;;;9.22;100.00
21234;BME280;10774;42.178;26.578;2022-11-12T02:13:19;101316.72;;;9.18;100.00
21234;BME280;10774;42.178;26.578;2022-11-12T02:16:04;101314.06;;;9.18;100.00
21234;BME280;10774;42.178;26.578;2022-11-12T02:18:31;101320.16;;;9.22;100.00
21234;BME280;10774;42.178;26.578;2022-11-12T02:20:59;101317.53;;;9.20;100.00
21234;BME280;10774;42.178;26.578;2022-11-12T02:23:27;101322.25;;;9.13;100.00
21234;BME280;10774;42.178;26.578;2022-11-12T02:25:53;101329.13;;;9.21;100.00
21234;BME280;10774;42.178;26.578;2022-11-12T02:28:19;101304.91;;;9.24;100.00
21234;BME280;10774;42.178;26.578;2022-11-12T02:30:47;101327.94;;;9.29;100.00
21234;BME280;10774;42.178;26.578;2022-11-12T02:33:13;101323.91;;;9.18;100.00
21234;BME280;10774;42.178;26.578;2022-11-12T02:35:38;101319.19;;;9.24;100.00
21234;BME280;10774;42.178;26.578;2022-11-12T02:38:05;101320.28;;;9.19;100.00
21234;BME280;10774;42.178;26.578;2022-11-12T02:40:31;101327.00;;;9.30;100.00
21234;BME280;10774;42.178;26.578;2022-11-12T02:42:56;101329.84;;;9.26;100.00
21234;BME280;10774;42.178;26.578;2022-11-12T02:45:22;101331.00;;;9.19;100.00
21234;BME280;10774;42.178;26.578;2022-11-12T02:47:47;101331.81;;;9.21;100.00
21234;BME280;10774;42.178;26.578;2022-11-12T02:50:13;101324.22;;;9.08;100.00
21234;BME280;10774;42.178;26.578;2022-11-12T02:52:39;101328.41;;;9.15;100.00
21234;BME280;10774;42.178;26.578;2022-11-12T02:55:06;101313.13;;;8.94;100.00
21234;BME280;10774;42.178;26.578;2022-11-12T02:57:32;101326.19;;;9.03;100.00
21234;BME280;10774;42.178;26.578;2022-11-12T02:59:57;101326.41;;;8.97;100.00
21234;BME280;10774;42.178;26.578;2022-11-12T03:02:22;101325.41;;;9.00;100.00
21234;BME280;10774;42.178;26.578;2022-11-12T03:04:48;101326.59;;;8.91;100.00
21234;BME280;10774;42.178;26.578;2022-11-12T03:07:14;101333.94;;;9.11;100.00
21234;BME280;10774;42.178;26.578;2022-11-12T03:09:39;101319.41;;;8.93;100.00
21234;BME280;10774;42.178;26.578;2022-11-12T03:12:04;101339.66;;;9.02;100.00
21234;BME280;10774;42.178;26.578;2022-11-12T03:14:30;101328.22;;;8.97;100.00
21234;BME280;10774;42.178;26.578;2022-11-12T03:16:55;101328.38;;;8.92;100.00
21234;BME280;10774;42.178;26.578;2022-11-12T03:19:21;101340.16;;;9.11;100.00
21234;BME280;10774;42.178;26.578;2022-11-12T03:21:46;101343.69;;;9.13;100.00
21234;BME280;10774;42.178;26.578;2022-11-12T03:24:12;101338.88;;;8.98;100.00
21234;BME280;10774;42.178;26.578;2022-11-12T03:26:37;101339.66;;;9.02;100.00
21234;BME280;10774;42.178;26.578;2022-11-12T03:29:02;101338.88;;;8.98;100.00
21234;BME280;10774;42.178;26.578;2022-11-12T03:31:28;101336.78;;;9.06;100.00
21234;BME280;10774;42.178;26.578;2022-11-12T03:33:53;101334.28;;;9.02;100.00
21234;BME280;10774;42.178;26.578;2022-11-12T03:36:19;101344.22;;;8.98;100.00
21234;BME280;10774;42.178;26.578;2022-11-12T03:38:44;101342.16;;;8.80;100.00
21234;BME280;10774;42.178;26.578;2022-11-12T03:41:09;101343.72;;;8.87;100.00
21234;BME280;10774;42.178;26.578;2022-11-12T03:43:35;101341.13;;;8.84;100.00
21234;BME280;10774;42.178;26.578;2022-11-12T03:46:00;101356.25;;;8.86;100.00
21234;BME280;10774;42.178;26.578;2022-11-12T03:48:26;101353.59;;;8.85;100.00
21234;BME280;10774;42.178;26.578;2022-11-12T03:50:52;101359.06;;;8.82;100.00
21234;BME280;10774;42.178;26.578;2022-11-12T03:53:21;101359.16;;;8.79;100.00
21234;BME280;10774;42.178;26.578;2022-11-12T03:55:46;101353.22;;;8.71;100.00
21234;BME280;10774;42.178;26.578;2022-11-12T03:58:11;101355.75;;;8.74;100.00
21234;BME280;10774;42.178;26.578;2022-11-12T04:00:37;101352.28;;;8.72;100.00
21234;BME280;10774;42.178;26.578;2022-11-12T04:03:02;101361.31;;;8.68;100.00
21234;BME280;10774;42.178;26.578;2022-11-12T04:05:28;101352.56;;;8.62;100.00
21234;BME280;10774;42.178;26.578;2022-11-12T04:08:14;101352.34;;;8.70;100.00
21234;BME280;10774;42.178;26.578;2022-11-12T04:10:59;101356.97;;;8.65;100.00
21234;BME280;10774;42.178;26.578;2022-11-12T04:13:24;101350.41;;;8.47;100.00
21234;BME280;10774;42.178;26.578;2022-11-12T04:16:10;101352.25;;;8.45;100.00
21234;BME280;10774;42.178;26.578;2022-11-12T04:18:56;101353.00;;;8.50;100.00
21234;BME280;10774;42.178;26.578;2022-11-12T04:21:58;101354.75;;;8.51;100.00
21234;BME280;10774;42.178;26.578;2022-11-12T04:24:33;101343.31;;;8.46;100.00
21234;BME280;10774;42.178;26.578;2022-11-12T04:27:18;101350.41;;;8.47;100.00
21234;BME280;10774;42.178;26.578;2022-11-12T04:29:45;101346.91;;;8.45;100.00
21234;BME280;10774;42.178;26.578;2022-11-12T04:32:30;101339.75;;;8.46;100.00
21234;BME280;10774;42.178;26.578;2022-11-12T04:34:57;101340.63;;;8.46;100.00
21234;BME280;10774;42.178;26.578;2022-11-12T04:37:24;101341.72;;;8.41;100.00
21234;BME280;10774;42.178;26.578;2022-11-12T04:39:50;101346.03;;;8.45;100.00
21234;BME280;10774;42.178;26.578;2022-11-12T04:42:16;101346.25;;;8.38;100.00
21234;BME280;10774;42.178;26.578;2022-11-12T04:45:00;101349.69;;;8.42;100.00
21234;BME280;10774;42.178;26.578;2022-11-12T04:47:35;101342.31;;;8.49;100.00
21234;BME280;10774;42.178;26.578;2022-11-12T04:50:02;101354.66;;;8.54;100.00
21234;BME280;10774;42.178;26.578;2022-11-12T04:52:29;101357.41;;;8.51;100.00
21234;BME280;10774;42.178;26.578;2022-11-12T04:54:55;101356.47;;;8.52;100.00
21234;BME280;10774;42.178;26.578;2022-11-12T04:57:21;101371.16;;;8.67;100.00
21234;BME280;10774;42.178;26.578;2022-11-12T04:59:47;101365.44;;;8.51;100.00
21234;BME280;10774;42.178;26.578;2022-11-12T05:02:14;101362.56;;;8.57;100.00
21234;BME280;10774;42.178;26.578;2022-11-12T05:04:39;101373.91;;;8.66;100.00
21234;BME280;10774;42.178;26.578;2022-11-12T05:07:05;101378.13;;;8.73;100.00
21234;BME280;10774;42.178;26.578;2022-11-12T05:09:30;101372.03;;;8.68;100.00
21234;BME280;10774;42.178;26.578;2022-11-12T05:11:56;101380.88;;;8.70;100.00
21234;BME280;10774;42.178;26.578;2022-11-12T05:14:22;101378.94;;;8.75;100.00
21234;BME280;10774;42.178;26.578;2022-11-12T05:16:48;101393.25;;;8.74;100.00
21234;BME280;10774;42.178;26.578;2022-11-12T05:19:14;101393.97;;;8.79;100.00
21234;BME280;10774;42.178;26.578;2022-11-12T05:21:39;101400.91;;;8.84;100.00
21234;BME280;10774;42.178;26.578;2022-11-12T05:24:23;101391.72;;;8.67;100.00
21234;BME280;10774;42.178;26.578;2022-11-12T05:26:49;101407.56;;;8.73;100.00
21234;BME280;10774;42.178;26.578;2022-11-12T05:29:15;101405.19;;;8.90;100.00
21234;BME280;10774;42.178;26.578;2022-11-12T05:31:40;101410.81;;;9.09;100.00
21234;BME280;10774;42.178;26.578;2022-11-12T05:34:06;101417.94;;;9.35;100.00
21234;BME280;10774;42.178;26.578;2022-11-12T05:36:31;101410.56;;;9.41;100.00
21234;BME280;10774;42.178;26.578;2022-11-12T05:38:58;101408.91;;;9.62;100.00
21234;BME280;10774;42.178;26.578;2022-11-12T05:41:23;101410.06;;;9.55;100.00
21234;BME280;10774;42.178;26.578;2022-11-12T05:43:49;101408.19;;;9.57;100.00
21234;BME280;10774;42.178;26.578;2022-11-12T05:46:14;101414.72;;;9.50;100.00
21234;BME280;10774;42.178;26.578;2022-11-12T05:48:40;101418.13;;;9.54;100.00
21234;BME280;10774;42.178;26.578;2022-11-12T05:51:05;101422.41;;;9.59;100.00
21234;BME280;10774;42.178;26.578;2022-11-12T05:53:30;101423.00;;;9.67;100.00
21234;BME280;10774;42.178;26.578;2022-11-12T05:56:00;101420.66;;;9.58;100.00
21234;BME280;10774;42.178;26.578;2022-11-12T05:58:26;101431.19;;;9.39;100.00
21234;BME280;10774;42.178;26.578;2022-11-12T06:00:51;101425.78;;;9.14;100.00
21234;BME280;10774;42.178;26.578;2022-11-12T06:03:17;101422.59;;;9.03;100.00
21234;BME280;10774;42.178;26.578;2022-11-12T06:05:42;101425.00;;;8.86;100.00
21234;BME280;10774;42.178;26.578;2022-11-12T06:08:08;101432.91;;;8.89;100.00
21234;BME280;10774;42.178;26.578;2022-11-12T06:10:33;101432.09;;;8.87;100.00
21234;BME280;10774;42.178;26.578;2022-11-12T06:12:59;101436.28;;;9.21;100.00
21234;BME280;10774;42.178;26.578;2022-11-12T06:15:24;101430.84;;;9.24;100.00
21234;BME280;10774;42.178;26.578;2022-11-12T06:17:54;101453.38;;;9.43;100.00
21234;BME280;10774;42.178;26.578;2022-11-12T06:20:20;101454.72;;;9.56;100.00
21234;BME280;10774;42.178;26.578;2022-11-12T06:22:46;101456.00;;;9.69;100.00
21234;BME280;10774;42.178;26.578;2022-11-12T06:25:12;101445.88;;;9.78;100.00
21234;BME280;10774;42.178;26.578;2022-11-12T06:27:38;101457.31;;;9.83;100.00
21234;BME280;10774;42.178;26.578;2022-11-12T06:30:04;101446.25;;;9.92;100.00
21234;BME280;10774;42.178;26.578;2022-11-12T06:32:30;101452.53;;;9.91;100.00
21234;BME280;10774;42.178;26.578;2022-11-12T06:34:55;101465.75;;;9.97;100.00
21234;BME280;10774;42.178;26.578;2022-11-12T06:37:21;101450.56;;;9.96;100.00
21234;BME280;10774;42.178;26.578;2022-11-12T06:39:47;101458.41;;;10.02;100.00
21234;BME280;10774;42.178;26.578;2022-11-12T06:42:13;101448.78;;;9.72;100.00
21234;BME280;10774;42.178;26.578;2022-11-12T06:44:38;101453.59;;;9.87;100.00
21234;BME280;10774;42.178;26.578;2022-11-12T06:47:04;101459.38;;;9.75;100.00
21234;BME280;10774;42.178;26.578;2022-11-12T06:49:30;101442.94;;;9.60;100.00
21234;BME280;10774;42.178;26.578;2022-11-12T06:51:55;101442.88;;;9.62;100.00
21234;BME280;10774;42.178;26.578;2022-11-12T06:54:21;101453.66;;;9.60;100.00
21234;BME280;10774;42.178;26.578;2022-11-12T06:56:46;101459.63;;;9.68;100.00
21234;BME280;10774;42.178;26.578;2022-11-12T06:59:12;101452.97;;;9.55;100.00
21234;BME280;10774;42.178;26.578;2022-11-12T07:01:37;101445.50;;;9.63;100.00
21234;BME280;10774;42.178;26.578;2022-11-12T07:04:03;101440.59;;;9.51;100.00
21234;BME280;10774;42.178;26.578;2022-11-12T07:06:29;101446.47;;;9.36;100.00
21234;BME280;10774;42.178;26.578;2022-11-12T07:08:54;101443.66;;;9.40;100.00
21234;BME280;10774;42.178;26.578;2022-11-12T07:11:20;101439.38;;;9.35;100.00
21234;BME280;10774;42.178;26.578;2022-11-12T07:13:46;101437.81;;;9.28;100.00
21234;BME280;10774;42.178;26.578;2022-11-12T07:16:13;101441.22;;;9.33;100.00
21234;BME280;10774;42.178;26.578;2022-11-12T07:18:43;101440.19;;;9.37;100.00
21234;BME280;10774;42.178;26.578;2022-11-12T07:21:19;101433.72;;;9.44;100.00
21234;BME280;10774;42.178;26.578;2022-11-12T07:23:45;101430.75;;;9.52;100.00
21234;BME280;10774;42.178;26.578;2022-11-12T07:26:16;101439.78;;;9.49;100.00
21234;BME280;10774;42.178;26.578;2022-11-12T07:28:42;101436.81;;;9.57;100.00
21234;BME280;10774;42.178;26.578;2022-11-12T07:31:13;101427.66;;;9.62;100.00
21234;BME280;10774;42.178;26.578;2022-11-12T07:33:39;101428.47;;;9.64;100.00
21234;BME280;10774;42.178;26.578;2022-11-12T07:36:10;101420.78;;;9.55;100.00
21234;BME280;10774;42.178;26.578;2022-11-12T07:38:37;101430.19;;;9.67;100.00
21234;BME280;10774;42.178;26.578;2022-11-12T07:41:04;101439.25;;;9.88;100.00
21234;BME280;10774;42.178;26.578;2022-11-12T07:43:31;101419.88;;;9.80;100.00
21234;BME280;10774;42.178;26.578;2022-11-12T07:46:05;101428.38;;;9.91;100.00
21234;BME280;10774;42.178;26.578;2022-11-12T07:48:31;101437.03;;;9.99;100.00
21234;BME280;10774;42.178;26.578;2022-11-12T07:53:26;101437.81;;;10.03;100.00
21234;BME280;10774;42.178;26.578;2022-11-12T07:55:53;101444.41;;;10.85;100.00
21234;BME280;10774;42.178;26.578;2022-11-12T07:58:19;101440.31;;;10.98;100.00
21234;BME280;10774;42.178;26.578;2022-11-12T08:00:44;101451.91;;;10.98;100.00
21234;BME280;10774;42.178;26.578;2022-11-12T08:03:09;101438.53;;;10.53;100.00
21234;BME280;10774;42.178;26.578;2022-11-12T08:05:35;101446.56;;;10.55;100.00
21234;BME280;10774;42.178;26.578;2022-11-12T08:08:00;101448.81;;;10.65;100.00
21234;BME280;10774;42.178;26.578;2022-11-12T08:10:25;101460.16;;;10.94;100.00
21234;BME280;10774;42.178;26.578;2022-11-12T08:12:54;101461.56;;;10.82;100.00
21234;BME280;10774;42.178;26.578;2022-11-12T08:15:20;101463.28;;;11.05;100.00
21234;BME280;10774;42.178;26.578;2022-11-12T08:17:45;101466.28;;;10.76;100.00
21234;BME280;10774;42.178;26.578;2022-11-12T08:20:11;101466.84;;;10.84;100.00
21234;BME280;10774;42.178;26.578;2022-11-12T08:22:37;101477.50;;;10.63;100.00
21234;BME280;10774;42.178;26.578;2022-11-12T08:25:02;101477.84;;;10.78;100.00
21234;BME280;10774;42.178;26.578;2022-11-12T08:27:28;101473.16;;;10.83;100.00
21234;BME280;10774;42.178;26.578;2022-11-12T08:29:53;101477.91;;;10.98;100.00
21234;BME280;10774;42.178;26.578;2022-11-12T08:32:18;101489.78;;;11.14;100.00
21234;BME280;10774;42.178;26.578;2022-11-12T08:34:44;101500.88;;;11.27;100.00
21234;BME280;10774;42.178;26.578;2022-11-12T08:37:09;101491.88;;;11.28;100.00
21234;BME280;10774;42.178;26.578;2022-11-12T08:39:35;101480.09;;;11.10;100.00
21234;BME280;10774;42.178;26.578;2022-11-12T08:42:00;101492.88;;;11.25;100.00
21234;BME280;10774;42.178;26.578;2022-11-12T08:44:25;101486.25;;;11.12;100.00
21234;BME280;10774;42.178;26.578;2022-11-12T08:46:51;101503.38;;;11.32;100.00
21234;BME280;10774;42.178;26.578;2022-11-12T08:49:16;101511.25;;;11.36;100.00
21234;BME280;10774;42.178;26.578;2022-11-12T08:51:42;101505.25;;;11.30;100.00
21234;BME280;10774;42.178;26.578;2022-11-12T08:54:07;101490.63;;;11.37;100.00
21234;BME280;10774;42.178;26.578;2022-11-12T08:56:32;101501.22;;;11.19;100.00
21234;BME280;10774;42.178;26.578;2022-11-12T08:58:58;101502.56;;;11.30;100.00
21234;BME280;10774;42.178;26.578;2022-11-12T09:01:24;101504.44;;;11.27;100.00
21234;BME280;10774;42.178;26.578;2022-11-12T09:03:49;101501.91;;;11.24;100.00
21234;BME280;10774;42.178;26.578;2022-11-12T09:06:15;101498.13;;;11.07;100.00
21234;BME280;10774;42.178;26.578;2022-11-12T09:08:40;101509.41;;;10.94;100.00
21234;BME280;10774;42.178;26.578;2022-11-12T09:11:06;101501.03;;;11.02;100.00
21234;BME280;10774;42.178;26.578;2022-11-12T09:13:31;101493.16;;;11.19;100.00
21234;BME280;10774;42.178;26.578;2022-11-12T09:16:04;101502.16;;;11.39;100.00
21234;BME280;10774;42.178;26.578;2022-11-12T09:18:31;101497.06;;;11.33;100.00
21234;BME280;10774;42.178;26.578;2022-11-12T09:21:08;101488.28;;;11.49;100.00
21234;BME280;10774;42.178;26.578;2022-11-12T09:23:35;101488.34;;;11.68;100.00
21234;BME280;10774;42.178;26.578;2022-11-12T09:26:01;101512.19;;;11.98;100.00
21234;BME280;10774;42.178;26.578;2022-11-12T09:28:26;101504.25;;;11.95;100.00
21234;BME280;10774;42.178;26.578;2022-11-12T09:30:53;101515.38;;;12.26;100.00
21234;BME280;10774;42.178;26.578;2022-11-12T09:33:25;101510.78;;;12.28;100.00
21234;BME280;10774;42.178;26.578;2022-11-12T09:35:52;101507.94;;;12.32;100.00
21234;BME280;10774;42.178;26.578;2022-11-12T09:38:18;101504.69;;;12.25;100.00
21234;BME280;10774;42.178;26.578;2022-11-12T09:45:51;101507.75;;;11.97;100.00
21234;BME280;10774;42.178;26.578;2022-11-12T09:48:22;101493.34;;;11.98;100.00
21234;BME280;10774;42.178;26.578;2022-11-12T09:50:55;101511.34;;;12.16;100.00
21234;BME280;10774;42.178;26.578;2022-11-12T09:56:10;101503.59;;;12.48;100.00
21234;BME280;10774;42.178;26.578;2022-11-12T09:58:36;101503.31;;;12.54;100.00
21234;BME280;10774;42.178;26.578;2022-11-12T10:01:12;101509.81;;;12.50;100.00
21234;BME280;10774;42.178;26.578;2022-11-12T10:06:18;101508.13;;;12.47;100.00
21234;BME280;10774;42.178;26.578;2022-11-12T10:08:52;101503.50;;;12.49;100.00
21234;BME280;10774;42.178;26.578;2022-11-12T10:14:03;101505.94;;;12.37;100.00
21234;BME280;10774;42.178;26.578;2022-11-12T10:24:38;101500.66;;;12.34;100.00
21234;BME280;10774;42.178;26.578;2022-11-12T10:27:15;101495.16;;;12.37;100.00
21234;BME280;10774;42.178;26.578;2022-11-12T10:30:08;101501.06;;;12.45;100.00
21234;BME280;10774;42.178;26.578;2022-11-12T10:32:41;101498.06;;;12.51;100.00
21234;BME280;10774;42.178;26.578;2022-11-12T10:35:09;101495.75;;;12.62;100.00
21234;BME280;10774;42.178;26.578;2022-11-12T10:40:30;101487.28;;;12.70;100.00
21234;BME280;10774;42.178;26.578;2022-11-12T10:45:28;101495.44;;;12.87;100.00
21234;BME280;10774;42.178;26.578;2022-11-12T10:47:54;101493.22;;;12.95;100.00
21234;BME280;10774;42.178;26.578;2022-11-12T10:50:34;101496.78;;;12.96;100.00
21234;BME280;10774;42.178;26.578;2022-11-12T10:53:05;101502.50;;;12.90;100.00
21234;BME280;10774;42.178;26.578;2022-11-12T10:55:34;101501.72;;;12.88;100.00
21234;BME280;10774;42.178;26.578;2022-11-12T10:58:12;101499.78;;;12.90;100.00
21234;BME280;10774;42.178;26.578;2022-11-12T11:03:23;101476.84;;;13.17;100.00
21234;BME280;10774;42.178;26.578;2022-11-12T11:05:57;101473.66;;;13.28;100.00
21234;BME280;10774;42.178;26.578;2022-11-12T11:08:47;101460.31;;;13.59;100.00
21234;BME280;10774;42.178;26.578;2022-11-12T11:13:45;101462.16;;;13.24;100.00
21234;BME280;10774;42.178;26.578;2022-11-12T11:16:22;101470.41;;;13.39;100.00
21234;BME280;10774;42.178;26.578;2022-11-12T11:18:51;101467.31;;;13.64;100.00
21234;BME280;10774;42.178;26.578;2022-11-12T11:34:40;101465.13;;;14.05;100.00
21234;BME280;10774;42.178;26.578;2022-11-12T11:37:28;101441.16;;;14.48;100.00
21234;BME280;10774;42.178;26.578;2022-11-12T11:40:09;101451.59;;;14.85;100.00
21234;BME280;10774;42.178;26.578;2022-11-12T11:46:05;101447.38;;;14.32;100.00
21234;BME280;10774;42.178;26.578;2022-11-12T11:56:44;101423.06;;;13.83;100.00
21234;BME280;10774;42.178;26.578;2022-11-12T12:04:46;101418.59;;;14.00;100.00
21234;BME280;10774;42.178;26.578;2022-11-12T12:07:30;101411.78;;;13.93;100.00
21234;BME280;10774;42.178;26.578;2022-11-12T12:12:48;101413.34;;;13.97;100.00
21234;BME280;10774;42.178;26.578;2022-11-12T12:18:25;101386.66;;;13.75;100.00
21234;BME280;10774;42.178;26.578;2022-11-12T12:21:05;101383.38;;;13.85;100.00
21234;BME280;10774;42.178;26.578;2022-11-12T12:31:56;101377.19;;;14.48;100.00
21234;BME280;10774;42.178;26.578;2022-11-12T12:34:36;101379.84;;;14.17;100.00
21234;BME280;10774;42.178;26.578;2022-11-12T12:39:46;101390.41;;;14.37;100.00
21234;BME280;10774;42.178;26.578;2022-11-12T12:42:27;101381.84;;;14.45;100.00
21234;BME280;10774;42.178;26.578;2022-11-12T12:44:57;101377.25;;;14.47;100.00
21234;BME280;10774;42.178;26.578;2022-11-12T12:47:35;101397.91;;;14.79;100.00
21234;BME280;10774;42.178;26.578;2022-11-12T12:50:06;101401.50;;;15.10;100.00
21234;BME280;10774;42.178;26.578;2022-11-12T12:53:36;101400.25;;;15.15;100.00
21234;BME280;10774;42.178;26.578;2022-11-12T12:55:49;101410.75;;;15.06;100.00
21234;BME280;10774;42.178;26.578;2022-11-12T13:03:50;101394.00;;;14.69;100.00
21234;BME280;10774;42.178;26.578;2022-11-12T13:06:23;101400.03;;;15.04;100.00
21234;BME280;10774;42.178;26.578;2022-11-12T13:08:56;101396.91;;;15.26;100.00
21234;BME280;10774;42.178;26.578;2022-11-12T13:19:33;101400.13;;;15.63;100.00
21234;BME280;10774;42.178;26.578;2022-11-12T13:32:42;101396.84;;;16.15;100.00
21234;BME280;10774;42.178;26.578;2022-11-12T13:40:38;101402.28;;;15.42;100.00
21234;BME280;10774;42.178;26.578;2022-11-12T13:43:10;101408.16;;;15.49;100.00
21234;BME280;10774;42.178;26.578;2022-11-12T13:45:51;101400.31;;;15.00;100.00
21234;BME280;10774;42.178;26.578;2022-11-12T13:48:28;101409.25;;;14.70;100.00
21234;BME280;10774;42.178;26.578;2022-11-12T13:50:57;101401.31;;;14.67;100.00
21234;BME280;10774;42.178;26.578;2022-11-12T13:53:28;101398.13;;;14.11;100.00
21234;BME280;10774;42.178;26.578;2022-11-12T13:55:55;101409.34;;;13.88;100.00
21234;BME280;10774;42.178;26.578;2022-11-12T13:58:34;101421.44;;;13.97;100.00
21234;BME280;10774;42.178;26.578;2022-11-12T14:01:01;101413.72;;;14.06;100.00
21234;BME280;10774;42.178;26.578;2022-11-12T14:03:36;101414.25;;;13.80;100.00
21234;BME280;10774;42.178;26.578;2022-11-12T14:06:21;101410.69;;;13.79;100.00
21234;BME280;10774;42.178;26.578;2022-11-12T14:14:13;101394.06;;;13.71;100.00
21234;BME280;10774;42.178;26.578;2022-11-12T14:20:05;101415.31;;;13.77;100.00
21234;BME280;10774;42.178;26.578;2022-11-12T14:22:36;101412.28;;;13.83;100.00
21234;BME280;10774;42.178;26.578;2022-11-12T14:25:03;101417.84;;;13.80;100.00
21234;BME280;10774;42.178;26.578;2022-11-12T14:32:37;101424.63;;;13.72;100.00
21234;BME280;10774;42.178;26.578;2022-11-12T14:35:20;101428.34;;;13.69;100.00
21234;BME280;10774;42.178;26.578;2022-11-12T14:38:01;101429.28;;;13.68;100.00
21234;BME280;10774;42.178;26.578;2022-11-12T14:40:29;101433.28;;;13.61;100.00
21234;BME280;10774;42.178;26.578;2022-11-12T14:42:55;101421.84;;;13.39;100.00
21234;BME280;10774;42.178;26.578;2022-11-12T14:45:22;101446.13;;;13.39;100.00
21234;BME280;10774;42.178;26.578;2022-11-12T14:47:49;101440.28;;;13.30;100.00
21234;BME280;10774;42.178;26.578;2022-11-12T14:50:26;101437.78;;;13.08;100.00